Time;durP1;ratioP1;P1;durP2;ratioP2;P2;SDS_P1;SDS_P2;PMS_P1;PMS_P2;Temp;Humidity;BMP_temperature;BMP_pressure;BME280_temperature;BME280_humidity;BME280_pressure;Samples;Min_cycle;Max_cycle;Signal;HPM_P1;HPM_P2
2021/10/11 00:00:40;;;;;;;29.30;14.25;;;4.80;99.90;;;;;;5003938;28;20029;-67
2021/10/11 00:03:05;;;;;;;29.58;14.80;;;4.80;99.90;;;;;;5004809;28;20505;-67
2021/10/11 00:05:31;;;;;;;31.50;13.90;;;4.90;99.90;;;;;;5011361;28;20771;-67
2021/10/11 00:07:56;;;;;;;33.10;15.65;;;4.90;99.90;;;;;;5002755;28;20033;-67
2021/10/11 00:10:24;;;;;;;32.17;14.38;;;5.00;99.90;;;;;;5004014;28;20120;-67
2021/10/11 00:12:49;;;;;;;29.77;14.13;;;5.00;99.90;;;;;;5000964;28;20040;-67
2021/10/11 00:15:15;;;;;;;31.05;14.75;;;5.10;99.90;;;;;;5003567;28;20429;-67
2021/10/11 00:17:40;;;;;;;31.83;14.70;;;5.10;99.90;;;;;;5005184;28;20034;-67
2021/10/11 00:20:06;;;;;;;28.80;14.05;;;5.10;99.90;;;;;;5004249;28;20939;-67
2021/10/11 00:22:31;;;;;;;33.80;16.00;;;5.10;99.90;;;;;;5012271;28;20034;-67
2021/10/11 00:24:57;;;;;;;28.95;14.38;;;5.10;99.90;;;;;;5005168;28;20481;-67
2021/10/11 00:27:22;;;;;;;35.90;14.30;;;5.20;99.90;;;;;;5004732;28;20045;-67
2021/10/11 00:29:48;;;;;;;31.67;15.35;;;5.20;99.90;;;;;;5003124;28;20034;-67
2021/10/11 00:32:13;;;;;;;30.20;14.85;;;5.20;99.90;;;;;;5005199;28;20037;-67
2021/10/11 00:34:39;;;;;;;29.65;14.50;;;5.10;99.90;;;;;;5003915;28;20375;-67
2021/10/11 00:37:04;;;;;;;29.27;14.10;;;5.10;99.90;;;;;;5003794;28;20439;-67
2021/10/11 00:39:30;;;;;;;27.90;14.55;;;5.10;99.90;;;;;;5004679;28;20022;-67
2021/10/11 00:41:55;;;;;;;29.30;14.55;;;5.10;99.90;;;;;;5004649;28;20450;-67
2021/10/11 00:44:21;;;;;;;30.20;14.40;;;5.00;99.90;;;;;;5004732;28;20573;-67
2021/10/11 00:46:46;;;;;;;31.50;13.93;;;5.00;99.90;;;;;;5002213;28;20037;-67
2021/10/11 00:49:12;;;;;;;27.63;13.85;;;5.00;99.90;;;;;;5003945;28;20045;-67
2021/10/11 00:51:37;;;;;;;27.33;13.23;;;5.00;99.90;;;;;;5004257;28;20026;-67
2021/10/11 00:54:03;;;;;;;25.25;13.65;;;5.10;99.90;;;;;;5004723;28;20072;-67
2021/10/11 00:56:28;;;;;;;25.48;13.48;;;5.10;99.90;;;;;;5002217;28;20034;-68
2021/10/11 00:58:54;;;;;;;27.45;13.30;;;5.10;99.90;;;;;;5002432;28;20398;-67
2021/10/11 01:01:19;;;;;;;28.58;14.30;;;5.10;99.90;;;;;;5001072;28;20062;-67
2021/10/11 01:03:45;;;;;;;28.00;13.77;;;5.10;99.90;;;;;;5004304;28;20029;-67
2021/10/11 01:06:10;;;;;;;29.48;13.13;;;5.10;99.90;;;;;;5000598;28;20042;-67
2021/10/11 01:08:36;;;;;;;22.73;12.43;;;5.10;99.90;;;;;;5004619;28;20570;-67
2021/10/11 01:11:01;;;;;;;25.13;12.90;;;5.10;99.90;;;;;;5003450;28;20033;-67
2021/10/11 01:13:27;;;;;;;25.00;12.63;;;4.90;99.90;;;;;;5004662;28;20069;-67
2021/10/11 01:15:52;;;;;;;29.20;14.23;;;4.80;99.90;;;;;;5004153;28;20383;-67
2021/10/11 01:18:18;;;;;;;28.95;13.65;;;4.70;99.90;;;;;;5004517;28;20737;-67
2021/10/11 01:20:43;;;;;;;30.73;13.85;;;4.70;99.90;;;;;;5002275;28;20045;-68
2021/10/11 01:23:08;;;;;;;25.60;12.95;;;4.60;99.90;;;;;;5003235;28;20555;-67
2021/10/11 01:25:34;;;;;;;26.85;13.55;;;4.50;99.90;;;;;;4983320;28;20038;-67
2021/10/11 01:28:00;;;;;;;25.42;13.00;;;4.50;99.90;;;;;;5003832;28;20034;-67
2021/10/11 01:30:25;;;;;;;28.00;13.90;;;4.50;99.90;;;;;;5003706;28;20034;-68
2021/10/11 01:32:51;;;;;;;25.10;13.07;;;4.50;99.90;;;;;;5004463;28;20040;-67
2021/10/11 01:35:16;;;;;;;24.35;12.90;;;4.50;99.90;;;;;;5003961;28;20037;-67
2021/10/11 01:37:42;;;;;;;28.17;14.40;;;4.60;99.90;;;;;;5002774;28;20042;-67
2021/10/11 01:40:07;;;;;;;25.73;13.60;;;4.60;99.90;;;;;;5003810;28;20050;-67
2021/10/11 01:42:33;;;;;;;29.75;13.57;;;4.70;99.90;;;;;;5002322;28;20037;-67
2021/10/11 01:44:58;;;;;;;24.23;12.93;;;4.70;99.90;;;;;;5003197;28;20776;-67
2021/10/11 01:47:24;;;;;;;29.55;13.32;;;4.70;99.90;;;;;;5001984;28;20103;-67
2021/10/11 01:49:49;;;;;;;24.73;12.02;;;4.70;99.90;;;;;;5004085;28;20072;-67
2021/10/11 01:52:15;;;;;;;23.45;13.00;;;4.60;99.90;;;;;;5002121;28;20121;-67
2021/10/11 01:54:40;;;;;;;27.35;12.55;;;4.60;99.90;;;;;;5003513;28;20040;-67
2021/10/11 01:57:06;;;;;;;22.15;12.27;;;4.60;99.90;;;;;;5002445;28;20759;-68
2021/10/11 01:59:31;;;;;;;26.00;13.20;;;4.60;99.90;;;;;;5004191;28;20034;-67
2021/10/11 02:01:57;;;;;;;23.40;14.10;;;4.70;99.90;;;;;;5003835;28;20087;-67
2021/10/11 02:04:23;;;;;;;25.25;13.05;;;4.70;99.90;;;;;;5002546;28;20034;-67
2021/10/11 02:06:48;;;;;;;24.42;12.95;;;4.80;99.90;;;;;;5003040;28;20109;-67
2021/10/11 02:09:14;;;;;;;22.20;12.57;;;4.80;99.90;;;;;;5003970;28;20030;-67
2021/10/11 02:11:39;;;;;;;27.45;12.65;;;4.80;99.90;;;;;;5003928;28;20117;-67
2021/10/11 02:14:05;;;;;;;29.02;14.00;;;4.80;99.90;;;;;;5001339;28;20375;-67
2021/10/11 02:16:30;;;;;;;24.00;12.27;;;5.00;99.90;;;;;;5006509;28;20053;-67
2021/10/11 02:18:56;;;;;;;25.60;13.48;;;5.10;99.90;;;;;;5000686;28;20076;-67
2021/10/11 02:21:21;;;;;;;23.15;12.50;;;5.10;99.90;;;;;;5004163;28;20410;-68
2021/10/11 02:23:47;;;;;;;27.35;12.85;;;5.10;99.90;;;;;;5002852;28;20033;-67
2021/10/11 02:26:12;;;;;;;21.25;11.52;;;5.10;99.90;;;;;;5002486;28;20133;-67
2021/10/11 02:28:37;;;;;;;23.25;12.55;;;5.10;99.90;;;;;;5001409;28;20038;-67
2021/10/11 02:31:03;;;;;;;20.02;10.98;;;5.10;99.90;;;;;;5002701;28;20037;-67
2021/10/11 02:33:29;;;;;;;20.77;11.10;;;5.10;99.90;;;;;;5002775;28;20045;-67
2021/10/11 02:35:54;;;;;;;19.67;11.75;;;5.10;99.90;;;;;;5002738;28;20484;-67
2021/10/11 02:38:20;;;;;;;29.42;12.35;;;5.10;99.90;;;;;;5002258;28;20031;-67
2021/10/11 02:40:45;;;;;;;22.90;12.23;;;5.10;99.90;;;;;;5001038;28;20856;-67
2021/10/11 02:43:11;;;;;;;21.35;11.70;;;5.00;99.90;;;;;;5003480;28;20061;-67
2021/10/11 02:45:36;;;;;;;20.60;11.70;;;5.00;99.90;;;;;;5003404;28;20594;-67
2021/10/11 02:48:02;;;;;;;22.15;11.70;;;5.00;99.90;;;;;;5001089;28;20037;-67
2021/10/11 02:50:27;;;;;;;20.35;11.48;;;5.10;99.90;;;;;;5003060;28;20034;-67
2021/10/11 02:52:53;;;;;;;19.23;11.27;;;5.00;99.90;;;;;;5003621;28;20486;-67
2021/10/11 02:55:18;;;;;;;25.98;11.82;;;5.00;99.90;;;;;;5003411;28;20565;-67
2021/10/11 02:57:44;;;;;;;25.35;12.88;;;5.00;99.90;;;;;;5001258;28;20108;-67
2021/10/11 03:00:10;;;;;;;21.75;11.35;;;5.10;99.90;;;;;;5003986;28;20627;-67
2021/10/11 03:02:35;;;;;;;22.48;12.68;;;5.10;99.90;;;;;;5003637;28;20040;-67
2021/10/11 03:05:01;;;;;;;24.73;12.90;;;5.10;99.90;;;;;;5003026;28;20056;-67
2021/10/11 03:07:27;;;;;;;21.35;12.18;;;5.10;99.90;;;;;;5002595;28;20132;-67
2021/10/11 03:09:52;;;;;;;22.23;12.02;;;5.20;99.90;;;;;;5002515;28;20518;-67
2021/10/11 03:12:17;;;;;;;21.48;11.05;;;5.20;99.90;;;;;;5001114;28;20571;-67
2021/10/11 03:14:43;;;;;;;20.98;11.10;;;5.30;99.90;;;;;;5000188;28;20045;-67
2021/10/11 03:17:08;;;;;;;19.17;10.25;;;5.30;99.90;;;;;;5001167;28;20129;-67
2021/10/11 03:19:34;;;;;;;19.40;11.10;;;5.20;99.90;;;;;;5000909;28;20038;-67
2021/10/11 03:21:59;;;;;;;19.17;10.35;;;5.20;99.90;;;;;;5002159;28;20038;-67
2021/10/11 03:24:25;;;;;;;19.02;10.05;;;5.00;99.90;;;;;;5001585;28;20037;-67
2021/10/11 03:26:50;;;;;;;19.00;10.52;;;5.00;99.90;;;;;;5000929;28;20034;-67
2021/10/11 03:29:17;;;;;;;18.05;10.18;;;4.90;99.90;;;;;;5000404;28;20036;-68
2021/10/11 03:31:42;;;;;;;20.80;11.57;;;4.80;99.90;;;;;;5001762;28;20042;-67
2021/10/11 03:34:08;;;;;;;23.83;10.48;;;4.80;99.90;;;;;;5001722;28;20545;-67
2021/10/11 03:36:33;;;;;;;25.88;11.63;;;4.90;99.90;;;;;;4997625;28;20034;-67
2021/10/11 03:38:59;;;;;;;20.23;11.75;;;4.90;99.90;;;;;;4998102;28;20137;-67
2021/10/11 03:41:24;;;;;;;21.67;11.38;;;4.90;99.90;;;;;;5000794;28;20375;-67
2021/10/11 03:43:50;;;;;;;21.63;11.35;;;4.90;99.90;;;;;;5000615;28;20108;-67
2021/10/11 03:46:15;;;;;;;23.50;11.60;;;4.90;99.90;;;;;;5001583;28;20037;-67
2021/10/11 03:48:41;;;;;;;22.50;11.23;;;5.00;99.90;;;;;;4998818;28;20131;-67
2021/10/11 03:51:06;;;;;;;22.25;12.02;;;5.00;99.90;;;;;;5001129;28;20034;-67
2021/10/11 03:53:32;;;;;;;25.63;12.73;;;5.00;99.90;;;;;;5001415;28;20034;-67
2021/10/11 03:55:57;;;;;;;21.92;11.95;;;5.10;99.90;;;;;;4999079;28;20042;-67
2021/10/11 03:58:22;;;;;;;22.80;11.85;;;5.20;99.90;;;;;;5000705;28;20258;-68
2021/10/11 04:00:48;;;;;;;28.98;11.77;;;5.20;99.90;;;;;;4999058;28;20038;-68
2021/10/11 04:03:13;;;;;;;24.73;11.48;;;5.30;99.90;;;;;;5001123;28;20738;-67
2021/10/11 04:05:39;;;;;;;20.10;10.82;;;5.30;99.90;;;;;;5001705;28;20044;-67
2021/10/11 04:08:12;;;;;;;19.75;10.63;;;5.30;99.90;;;;;;5000141;28;20501;-67
2021/10/11 04:13:22;;;;;;;20.60;11.95;;;5.40;99.90;;;;;;4999671;28;20050;-67
2021/10/11 04:15:48;;;;;;;21.55;12.00;;;5.40;99.90;;;;;;4999782;28;20034;-67
2021/10/11 04:18:13;;;;;;;21.48;11.25;;;5.60;99.90;;;;;;4999449;28;20587;-67
2021/10/11 04:20:39;;;;;;;21.85;11.15;;;5.60;99.90;;;;;;4999774;28;20801;-67
2021/10/11 04:23:04;;;;;;;19.73;10.95;;;5.60;99.90;;;;;;4998938;28;20064;-67
2021/10/11 04:25:30;;;;;;;19.60;11.13;;;5.60;99.90;;;;;;4994291;28;20025;-67
2021/10/11 04:27:55;;;;;;;22.75;11.55;;;5.70;99.90;;;;;;4991971;28;20088;-67
2021/10/11 04:30:21;;;;;;;22.73;11.40;;;5.70;99.90;;;;;;4997090;28;20026;-67
2021/10/11 04:32:46;;;;;;;22.15;10.98;;;5.70;99.90;;;;;;4997213;28;20123;-67
2021/10/11 04:35:12;;;;;;;19.63;11.55;;;5.70;99.90;;;;;;4994050;28;20034;-67
2021/10/11 04:37:37;;;;;;;16.52;9.77;;;5.70;99.90;;;;;;4997640;28;20138;-67
2021/10/11 04:40:03;;;;;;;21.30;10.55;;;5.70;99.90;;;;;;4997493;28;20033;-67
2021/10/11 04:42:28;;;;;;;23.27;11.85;;;5.70;99.90;;;;;;4998374;28;20034;-66
2021/10/11 04:44:54;;;;;;;20.27;11.60;;;5.60;99.90;;;;;;5000879;28;20277;-66
2021/10/11 04:47:19;;;;;;;18.30;10.55;;;5.60;99.90;;;;;;4997877;28;20121;-66
2021/10/11 04:49:44;;;;;;;21.20;12.02;;;5.60;99.90;;;;;;4998350;28;20401;-66
2021/10/11 04:52:10;;;;;;;23.80;10.65;;;5.60;99.90;;;;;;4997744;28;20116;-66
2021/10/11 04:54:35;;;;;;;20.55;11.70;;;5.50;99.90;;;;;;4999672;28;20092;-66
2021/10/11 04:57:01;;;;;;;27.33;14.05;;;5.60;99.90;;;;;;4999017;28;20678;-66
2021/10/11 04:59:26;;;;;;;22.17;11.93;;;5.60;99.90;;;;;;4995667;28;20030;-67
2021/10/11 05:01:52;;;;;;;28.52;12.93;;;5.60;99.90;;;;;;4990698;28;20041;-69
2021/10/11 05:04:18;;;;;;;26.55;13.38;;;5.60;99.90;;;;;;4993222;28;20033;-66
2021/10/11 05:06:43;;;;;;;30.50;14.30;;;5.60;99.90;;;;;;5003860;28;20441;-66
2021/10/11 05:09:08;;;;;;;35.35;15.48;;;5.60;99.90;;;;;;5000420;28;20034;-66
2021/10/11 05:11:34;;;;;;;43.42;16.35;;;5.60;99.90;;;;;;4991488;28;20410;-66
2021/10/11 05:13:59;;;;;;;46.97;16.95;;;5.60;99.90;;;;;;4996260;28;20038;-66
2021/10/11 05:16:26;;;;;;;58.33;20.98;;;5.70;99.90;;;;;;4992539;28;20069;-66
2021/10/11 05:18:52;;;;;;;56.55;20.23;;;5.80;99.90;;;;;;4997440;28;20037;-69
2021/10/11 05:21:17;;;;;;;47.97;19.70;;;5.80;99.90;;;;;;4994370;28;20045;-67
2021/10/11 05:23:43;;;;;;;44.58;18.08;;;5.90;99.90;;;;;;4998160;28;20030;-66
2021/10/11 05:26:08;;;;;;;33.38;15.60;;;6.00;99.90;;;;;;4998984;28;20976;-66
2021/10/11 05:28:34;;;;;;;31.95;14.65;;;6.10;99.90;;;;;;4991608;28;20034;-66
2021/10/11 05:30:59;;;;;;;26.38;14.77;;;6.20;99.90;;;;;;4997526;28;20030;-66
2021/10/11 05:33:25;;;;;;;25.02;14.55;;;6.30;99.90;;;;;;5001994;28;20044;-66
2021/10/11 05:35:52;;;;;;;39.47;14.57;;;6.40;99.90;;;;;;5002692;28;20408;-66
2021/10/11 05:38:17;;;;;;;27.10;14.35;;;6.50;99.90;;;;;;4996823;28;20041;-66
2021/10/11 05:40:43;;;;;;;27.48;15.02;;;6.50;99.90;;;;;;5003041;28;20868;-65
2021/10/11 05:43:08;;;;;;;26.58;15.00;;;6.60;99.90;;;;;;5001041;28;20030;-65
2021/10/11 05:45:34;;;;;;;31.35;16.35;;;6.60;99.90;;;;;;4999783;28;20027;-66
2021/10/11 05:48:00;;;;;;;31.58;15.30;;;6.70;99.90;;;;;;5000642;28;20732;-66
2021/10/11 05:50:25;;;;;;;26.08;14.52;;;6.80;99.90;;;;;;4997941;28;20042;-66
2021/10/11 05:52:51;;;;;;;28.60;15.63;;;6.80;99.90;;;;;;4999564;28;20758;-66
2021/10/11 05:55:16;;;;;;;28.90;15.98;;;6.90;99.90;;;;;;5011290;28;20034;-66
2021/10/11 05:57:42;;;;;;;30.15;16.67;;;6.90;99.90;;;;;;5000158;28;20604;-66
2021/10/11 06:00:07;;;;;;;33.80;17.20;;;7.00;99.90;;;;;;5002209;28;20172;-66
2021/10/11 06:02:33;;;;;;;27.73;15.35;;;7.20;99.90;;;;;;5003221;28;20041;-66
2021/10/11 06:04:58;;;;;;;29.45;16.70;;;7.20;99.90;;;;;;4998428;28;20076;-66
2021/10/11 06:07:24;;;;;;;32.22;17.13;;;7.20;99.90;;;;;;5000066;28;20733;-66
2021/10/11 06:09:49;;;;;;;30.77;16.65;;;7.30;99.90;;;;;;4991408;28;20038;-65
2021/10/11 06:12:15;;;;;;;30.92;16.10;;;7.40;99.90;;;;;;4999403;28;20037;-65
2021/10/11 06:14:40;;;;;;;35.70;16.83;;;7.40;99.90;;;;;;4995417;28;20070;-66
2021/10/11 06:17:06;;;;;;;29.27;16.60;;;7.50;99.90;;;;;;4994257;28;20485;-65
2021/10/11 06:19:31;;;;;;;38.65;18.98;;;7.60;99.90;;;;;;4991444;28;20048;-65
2021/10/11 06:21:57;;;;;;;34.38;19.30;;;7.70;99.90;;;;;;4992826;28;20113;-65
2021/10/11 06:24:22;;;;;;;33.10;17.00;;;7.80;99.90;;;;;;4993088;28;20077;-65
2021/10/11 06:26:49;;;;;;;38.38;17.48;;;7.80;99.90;;;;;;5000010;28;20061;-65
2021/10/11 06:29:14;;;;;;;31.88;17.23;;;7.80;99.90;;;;;;4999983;28;20459;-65
2021/10/11 06:31:40;;;;;;;31.90;16.63;;;7.90;99.90;;;;;;4992121;28;20137;-66
2021/10/11 06:34:05;;;;;;;34.22;17.52;;;8.00;99.90;;;;;;4997340;28;20030;-65
2021/10/11 06:36:34;;;;;;;38.03;18.08;;;8.00;99.90;;;;;;4999825;28;20038;-65
2021/10/11 06:39:00;;;;;;;39.85;19.25;;;8.10;99.90;;;;;;4995429;28;20478;-67
2021/10/11 06:41:25;;;;;;;34.35;18.58;;;8.20;99.90;;;;;;4998891;28;20042;-66
2021/10/11 06:43:51;;;;;;;31.42;18.45;;;8.30;99.90;;;;;;4998620;28;20517;-66
2021/10/11 06:46:16;;;;;;;34.35;17.85;;;8.30;99.90;;;;;;5000040;28;20088;-65
2021/10/11 06:48:42;;;;;;;37.63;18.48;;;8.40;99.90;;;;;;4998885;28;20584;-65
2021/10/11 06:51:07;;;;;;;33.70;18.27;;;8.40;99.90;;;;;;5006277;28;20030;-66
2021/10/11 06:53:33;;;;;;;30.20;17.08;;;8.50;99.90;;;;;;4994349;28;20041;-65
2021/10/11 06:55:58;;;;;;;31.55;16.65;;;8.50;99.90;;;;;;4997531;28;20050;-66
2021/10/11 06:58:24;;;;;;;32.47;17.65;;;8.50;99.90;;;;;;5000812;28;20481;-65
2021/10/11 07:00:51;;;;;;;37.67;20.20;;;8.60;99.90;;;;;;4990872;28;20034;-66
2021/10/11 07:03:23;;;;;;;32.25;16.73;;;8.60;99.90;;;;;;4994319;28;20030;-66
2021/10/11 07:05:48;;;;;;;32.78;17.60;;;8.60;99.90;;;;;;4998132;28;20044;-66
2021/10/11 07:08:14;;;;;;;41.15;18.63;;;8.70;99.90;;;;;;4992048;28;20030;-66
2021/10/11 07:10:39;;;;;;;31.70;18.73;;;8.70;99.90;;;;;;4993850;28;20034;-66
2021/10/11 07:13:04;;;;;;;34.42;17.67;;;8.70;99.90;;;;;;4997113;28;20030;-66
2021/10/11 07:15:30;;;;;;;32.80;17.40;;;8.80;99.90;;;;;;5001016;28;20079;-66
2021/10/11 07:17:56;;;;;;;30.92;16.42;;;8.90;99.90;;;;;;5001268;28;20386;-66
2021/10/11 07:20:21;;;;;;;33.85;17.73;;;9.00;99.90;;;;;;4991015;28;20034;-66
2021/10/11 07:22:47;;;;;;;30.73;17.33;;;9.00;99.90;;;;;;4991842;28;20891;-66
2021/10/11 07:25:12;;;;;;;32.50;16.25;;;9.00;99.90;;;;;;4997464;28;20049;-66
2021/10/11 07:27:38;;;;;;;41.97;18.50;;;9.00;99.90;;;;;;4997774;28;20069;-66
2021/10/11 07:30:04;;;;;;;32.38;16.75;;;;;;;;;;4998316;28;20597;-66
2021/10/11 07:32:29;;;;;;;35.85;19.00;;;8.90;99.90;;;;;;4973635;28;20038;-66
2021/10/11 07:34:55;;;;;;;33.85;17.63;;;9.00;99.90;;;;;;4993290;28;20034;-66
2021/10/11 07:37:21;;;;;;;32.85;18.15;;;;;;;;;;4990313;28;20041;-66
2021/10/11 07:39:47;;;;;;;36.50;17.23;;;9.00;99.90;;;;;;4991283;28;20125;-66
2021/10/11 07:42:13;;;;;;;35.17;19.38;;;;;;;;;;4990803;28;20037;-66
2021/10/11 07:44:38;;;;;;;32.70;16.92;;;9.00;99.90;;;;;;4998009;28;20045;-66
2021/10/11 07:47:05;;;;;;;37.50;18.35;;;9.00;99.90;;;;;;4979022;28;20504;-66
2021/10/11 07:49:30;;;;;;;40.20;20.67;;;9.00;99.90;;;;;;4991463;28;20087;-66
2021/10/11 07:51:56;;;;;;;39.30;17.63;;;8.90;99.90;;;;;;4992121;28;20042;-66
2021/10/11 07:54:21;;;;;;;38.40;19.15;;;8.90;99.90;;;;;;4999725;28;20160;-66
2021/10/11 07:56:47;;;;;;;41.17;19.63;;;9.00;99.90;;;;;;4986477;28;20034;-66
2021/10/11 07:59:12;;;;;;;38.42;20.27;;;9.10;99.90;;;;;;4992152;28;20758;-66
2021/10/11 08:01:38;;;;;;;40.53;20.35;;;9.20;99.90;;;;;;4999311;28;20033;-66
2021/10/11 08:04:03;;;;;;;38.17;21.20;;;9.20;99.90;;;;;;4996790;28;20026;-66
2021/10/11 08:06:29;;;;;;;41.72;22.48;;;9.30;99.90;;;;;;4991252;28;20038;-66
2021/10/11 08:08:55;;;;;;;43.13;21.80;;;9.30;99.90;;;;;;4991891;28;20522;-66
2021/10/11 08:11:20;;;;;;;37.63;19.92;;;9.40;99.90;;;;;;5000131;28;20049;-66
2021/10/11 08:13:46;;;;;;;40.80;21.13;;;9.60;99.90;;;;;;4993922;28;20036;-66
2021/10/11 08:16:11;;;;;;;38.17;19.33;;;9.60;99.90;;;;;;5001929;28;20034;-66
2021/10/11 08:18:37;;;;;;;46.15;23.30;;;9.70;99.90;;;;;;4997092;28;20034;-66
2021/10/11 08:21:04;;;;;;;44.72;23.50;;;9.80;99.90;;;;;;5002722;28;21095;-66
2021/10/11 08:23:31;;;;;;;46.58;22.15;;;9.70;99.90;;;;;;4998110;28;20048;-66
2021/10/11 08:25:56;;;;;;;44.72;23.50;;;9.70;99.90;;;;;;5001678;28;20038;-65
2021/10/11 08:28:22;;;;;;;48.92;23.77;;;9.50;99.90;;;;;;4997084;28;20524;-66
2021/10/11 08:30:47;;;;;;;47.25;23.20;;;9.30;99.90;;;;;;4996965;28;20030;-66
2021/10/11 08:33:13;;;;;;;42.38;21.67;;;9.40;99.90;;;;;;5002688;28;20117;-66
2021/10/11 08:35:38;;;;;;;48.63;25.45;;;9.40;99.90;;;;;;4995504;28;20085;-66
2021/10/11 08:38:04;;;;;;;53.00;26.77;;;9.50;99.90;;;;;;4997870;28;20045;-66
2021/10/11 08:40:29;;;;;;;47.63;25.33;;;9.40;99.90;;;;;;4993691;28;20564;-66
2021/10/11 08:42:55;;;;;;;53.35;26.20;;;9.40;99.90;;;;;;5002163;28;20030;-66
2021/10/11 08:45:20;;;;;;;55.05;25.13;;;9.40;99.90;;;;;;5000816;28;20030;-66
2021/10/11 08:47:46;;;;;;;47.05;24.27;;;9.50;99.90;;;;;;4995783;28;20038;-65
2021/10/11 08:50:12;;;;;;;50.63;23.73;;;9.80;99.90;;;;;;4998923;28;20049;-66
2021/10/11 08:52:38;;;;;;;46.25;23.52;;;10.10;99.90;;;;;;4990287;28;20038;-66
2021/10/11 08:55:04;;;;;;;50.63;23.40;;;;;;;;;;5002056;28;20778;-66
2021/10/11 08:57:29;;;;;;;46.17;22.73;;;10.70;99.90;;;;;;4997991;28;21161;-66
2021/10/11 08:59:55;;;;;;;49.80;24.40;;;10.90;99.90;;;;;;4998860;28;20026;-67
2021/10/11 09:02:20;;;;;;;47.05;22.38;;;10.90;99.90;;;;;;4997091;28;20038;-66
2021/10/11 09:04:46;;;;;;;49.58;23.83;;;10.90;99.90;;;;;;4996296;28;20037;-68
2021/10/11 09:07:12;;;;;;;53.42;24.45;;;10.90;99.90;;;;;;4999743;28;20153;-68
2021/10/11 09:09:37;;;;;;;46.63;22.95;;;10.80;99.90;;;;;;4997416;28;20050;-68
2021/10/11 09:12:03;;;;;;;52.78;25.42;;;11.00;99.90;;;;;;4996773;28;20042;-68
2021/10/11 09:14:28;;;;;;;46.60;23.73;;;11.00;99.90;;;;;;5007229;28;20076;-69
2021/10/11 09:17:00;;;;;;;44.28;22.77;;;11.10;99.90;;;;;;5001756;28;20750;-68
2021/10/11 09:19:29;;;;;;;47.58;23.83;;;11.10;99.90;;;;;;4997060;28;20042;-69
2021/10/11 09:21:55;;;;;;;49.10;22.40;;;11.00;99.90;;;;;;4992632;28;20034;-68
2021/10/11 09:24:20;;;;;;;46.67;23.02;;;11.00;99.90;;;;;;5000192;28;20488;-68
2021/10/11 09:26:46;;;;;;;44.25;22.58;;;11.00;99.90;;;;;;4993218;28;20481;-68
2021/10/11 09:29:11;;;;;;;46.80;22.67;;;11.10;99.90;;;;;;4999942;28;20036;-67
2021/10/11 09:31:39;;;;;;;45.15;22.33;;;11.30;99.90;;;;;;4993185;28;20686;-68
2021/10/11 09:34:05;;;;;;;46.33;20.95;;;11.50;99.90;;;;;;4997875;28;20446;-68
2021/10/11 09:36:30;;;;;;;46.65;21.02;;;11.60;99.90;;;;;;4994170;28;20038;-68
2021/10/11 09:38:56;;;;;;;45.60;21.85;;;11.80;99.90;;;;;;5001529;28;20041;-68
2021/10/11 09:41:21;;;;;;;40.10;19.65;;;11.90;99.90;;;;;;5000747;28;20040;-67
2021/10/11 09:43:49;;;;;;;44.88;20.83;;;12.40;99.90;;;;;;4995494;28;20030;-67
2021/10/11 09:46:14;;;;;;;39.35;19.30;;;12.10;99.90;;;;;;4993963;28;20038;-68
2021/10/11 09:48:40;;;;;;;38.50;20.35;;;12.40;99.90;;;;;;4996016;28;20099;-68
2021/10/11 09:51:05;;;;;;;44.53;20.15;;;12.90;99.90;;;;;;5000283;28;20038;-67
2021/10/11 09:53:31;;;;;;;40.55;19.63;;;13.30;99.90;;;;;;4999127;28;20041;-68
2021/10/11 09:55:57;;;;;;;37.15;18.83;;;13.50;99.90;;;;;;4995223;28;20568;-68
2021/10/11 09:58:22;;;;;;;34.38;18.20;;;13.80;99.90;;;;;;4997772;28;20106;-68
2021/10/11 10:00:48;;;;;;;39.55;18.42;;;14.20;99.90;;;;;;4999621;28;20030;-67
2021/10/11 10:03:13;;;;;;;39.10;19.58;;;14.30;99.90;;;;;;5012707;28;20502;-67
2021/10/11 10:05:39;;;;;;;36.25;17.90;;;14.50;99.90;;;;;;4995107;28;20074;-67
2021/10/11 10:08:06;;;;;;;35.33;18.13;;;14.60;99.90;;;;;;4999170;28;20030;-65
2021/10/11 10:10:31;;;;;;;43.15;18.73;;;14.60;99.90;;;;;;4994023;28;20037;-66
2021/10/11 10:12:57;;;;;;;39.58;19.60;;;14.30;99.90;;;;;;5004910;28;20041;-66
2021/10/11 10:15:22;;;;;;;38.70;18.95;;;14.40;99.90;;;;;;4996756;28;20029;-65
2021/10/11 10:17:48;;;;;;;38.30;19.40;;;14.90;99.90;;;;;;4997554;28;20602;-66
2021/10/11 10:20:13;;;;;;;32.78;17.92;;;14.80;99.90;;;;;;4997568;28;20026;-66
2021/10/11 10:22:39;;;;;;;37.58;17.88;;;14.60;99.90;;;;;;4997916;28;20040;-66
2021/10/11 10:25:04;;;;;;;38.17;19.17;;;14.60;99.90;;;;;;5000113;28;20037;-66
2021/10/11 10:27:30;;;;;;;36.35;17.48;;;14.50;99.90;;;;;;4997223;28;20040;-66
2021/10/11 10:29:58;;;;;;;36.05;17.10;;;14.30;99.90;;;;;;4988581;28;20034;-66
2021/10/11 10:32:24;;;;;;;34.65;17.15;;;14.10;99.90;;;;;;4997229;28;20095;-66
2021/10/11 10:34:49;;;;;;;38.80;17.13;;;14.00;99.90;;;;;;4997700;28;20517;-66
2021/10/11 10:37:14;;;;;;;35.80;17.58;;;14.20;99.90;;;;;;4995543;28;20038;-66
2021/10/11 10:39:40;;;;;;;30.42;15.88;;;14.50;99.90;;;;;;5000533;28;20068;-66
2021/10/11 10:42:06;;;;;;;33.35;16.33;;;15.00;99.90;;;;;;4999674;28;20045;-66
2021/10/11 10:44:31;;;;;;;34.50;16.15;;;15.20;99.90;;;;;;5000537;28;20114;-66
2021/10/11 10:46:57;;;;;;;31.40;15.20;;;15.40;99.90;;;;;;4996616;28;20071;-66
2021/10/11 10:49:22;;;;;;;32.67;14.82;;;15.60;99.90;;;;;;4996304;28;20074;-66
2021/10/11 10:51:48;;;;;;;25.40;12.57;;;15.80;99.90;;;;;;4997457;28;20044;-66
2021/10/11 10:54:13;;;;;;;33.67;12.98;;;15.80;99.90;;;;;;5012186;28;20041;-66
2021/10/11 10:56:39;;;;;;;25.73;11.48;;;15.50;99.90;;;;;;5002046;28;20120;-66
2021/10/11 10:59:06;;;;;;;29.85;12.50;;;15.70;99.90;;;;;;4998177;28;20061;-66
2021/10/11 11:01:32;;;;;;;26.48;12.13;;;15.90;99.90;;;;;;4996031;28;20042;-66
2021/10/11 11:03:57;;;;;;;29.85;11.85;;;16.40;99.90;;;;;;4997261;28;20026;-67
2021/10/11 11:06:23;;;;;;;24.88;11.30;;;16.60;99.90;;;;;;4997963;28;20890;-66
2021/10/11 11:08:48;;;;;;;24.17;11.77;;;16.90;99.90;;;;;;4993798;28;20038;-66
2021/10/11 11:11:14;;;;;;;27.08;11.57;;;16.60;99.90;;;;;;4999664;28;20445;-67
2021/10/11 11:13:39;;;;;;;22.35;12.05;;;16.40;99.90;;;;;;4996971;28;20037;-66
2021/10/11 11:16:05;;;;;;;25.48;12.50;;;16.40;99.90;;;;;;4999274;28;20709;-67
2021/10/11 11:18:30;;;;;;;24.60;12.10;;;15.90;99.90;;;;;;4998644;28;20030;-67
2021/10/11 11:20:56;;;;;;;28.25;12.10;;;15.60;99.90;;;;;;4996708;28;20783;-66
2021/10/11 11:23:23;;;;;;;24.38;10.70;;;15.50;99.90;;;;;;4999116;28;20041;-66
2021/10/11 11:25:48;;;;;;;24.50;10.43;;;15.20;99.90;;;;;;4999577;28;20132;-66
2021/10/11 11:28:14;;;;;;;23.05;11.20;;;15.10;99.90;;;;;;4998602;28;20030;-66
2021/10/11 11:30:39;;;;;;;21.90;10.50;;;15.10;99.90;;;;;;4999023;28;20026;-66
2021/10/11 11:33:05;;;;;;;24.15;11.15;;;15.20;99.90;;;;;;4999438;28;20037;-66
2021/10/11 11:35:30;;;;;;;28.20;13.38;;;15.50;99.90;;;;;;4997480;28;20446;-67
2021/10/11 11:37:56;;;;;;;24.52;11.00;;;16.00;99.90;;;;;;4994454;28;20033;-66
2021/10/11 11:40:21;;;;;;;20.35;9.35;;;16.20;99.90;;;;;;4996516;28;20553;-67
2021/10/11 11:42:47;;;;;;;20.67;8.77;;;16.10;99.90;;;;;;5001153;28;20453;-67
2021/10/11 11:45:12;;;;;;;17.23;7.05;;;16.10;99.90;;;;;;5002575;28;20467;-66
2021/10/11 11:47:38;;;;;;;20.38;6.53;;;15.90;99.90;;;;;;5001349;28;20095;-65
2021/10/11 11:50:03;;;;;;;24.77;9.63;;;15.60;99.90;;;;;;4998584;28;20080;-66
2021/10/11 11:52:29;;;;;;;23.67;7.88;;;15.30;99.90;;;;;;5007293;28;20095;-66
2021/10/11 11:54:57;;;;;;;15.32;6.40;;;14.90;99.90;;;;;;5007102;28;20420;-66
2021/10/11 11:57:23;;;;;;;24.40;6.82;;;;;;;;;;5002625;28;20065;-66
2021/10/11 11:59:48;;;;;;;11.48;5.13;;;15.10;99.90;;;;;;5006622;28;20057;-66
2021/10/11 12:02:14;;;;;;;13.18;5.68;;;14.80;99.90;;;;;;5002688;28;20903;-66
2021/10/11 12:04:40;;;;;;;17.88;5.95;;;15.00;99.90;;;;;;5004627;28;20041;-66
2021/10/11 12:07:05;;;;;;;15.63;5.32;;;15.10;99.90;;;;;;5004084;28;20037;-65
2021/10/11 12:09:31;;;;;;;16.25;5.20;;;14.90;99.90;;;;;;5000177;28;20037;-67
2021/10/11 12:11:57;;;;;;;21.92;6.85;;;;;;;;;;4999725;28;20792;-67
2021/10/11 12:14:23;;;;;;;15.48;6.05;;;;;;;;;;5005300;28;20038;-67
2021/10/11 12:16:49;;;;;;;24.88;7.38;;;;;;;;;;5002688;28;20088;-66
2021/10/11 12:19:15;;;;;;;21.52;5.40;;;;;;;;;;4995886;28;20041;-67
2021/10/11 12:21:42;;;;;;;17.45;4.97;;;;;;;;;;5002868;28;20096;-66
2021/10/11 12:24:08;;;;;;;21.10;4.35;;;;;;;;;;4996749;28;20034;-66
2021/10/11 12:26:34;;;;;;;21.52;6.55;;;;;;;;;;5001955;28;20037;-66
2021/10/11 12:29:01;;;;;;;18.33;6.13;;;;;;;;;;5003993;28;20045;-66
2021/10/11 12:31:27;;;;;;;15.98;5.03;;;;;;;;;;4999855;28;20069;-66